Avioradar koristi kolačiće da bi Vam omogućio jednostavnije i ugodnije korištenje stranice. 

AVIORADAR - Croatian aviation website

METAR & TAF

[Source: ADDS]
METAR
LDZA 212030Z 22006KT 9999 FEW048 13/11 Q1011 NOSIG =
LDZA 211725Z 2118/2218 23006KT CAVOK TX20/2213Z TN10/2204Z PROB30 2202/2206 3000 BR PROB30 TEMPO 2211/2216 23012KT TSRA FEW030CB SCT040 LDSP 212030Z 36004KT 9999 SCT065 15/11 Q1015 NOSIG =
LDSP 211725Z 2118/2218 08005KT 9999 SCT040 TX20/2213Z TN15/2204Z BECMG 2210/2212 23008KT PROB40 TEMPO 2210/2217 TSRA FEW030CB SCT035 LDDU 212030Z 07010KT 9999 -RA FEW040 BKN060 15/12 Q1016 NOSIG =
LDDU 211725Z 2118/2218 09008KT 9999 SCT030 TX19/2212Z TN14/2203Z BECMG 2206/2208 12012KT BECMG 2212/2214 VRB02KT LDPL 212030Z 09008KT 9999 FEW025CB SCT042 BKN057 15/13 Q1013 TEMPO TSRA =
LDPL 211725Z 2118/2218 18006KT 9999 BKN040 TX19/2214Z TN11/2204Z PROB30 TEMPO 2121/2201 TSRA BKN010 FEW020CB BKN030 PROB30 TEMPO 2204/2209 TSRA BKN010 FEW020CB BKN030 TEMPO 2205/2211 27010KT LDZD 212030Z 14006KT 9999 SCT050 BKN073 14/12 Q1014 NOSIG =
LDZD 211725Z 2118/2218 13005KT 9999 SCT030 TX20/2213Z TN10/2204Z PROB30 TEMPO 2122/2201 RA BECMG 2210/2212 30008KT LDRI 212030Z VRB02KT 9999 BKN030 14/11 Q1014 =
LDRI 211725Z 2118/2218 14006KT 9999 BKN030 TX17/2215Z TN11/2204Z PROB40 TEMPO 2121/2213 RA BKN008 BKN025 LDOS 212030Z 22006KT 9999 FEW043 14/12 Q1011 =
LDOS 211725Z 2118/2218 22010KT 9999 SCT035 TX22/2214Z TN09/2204Z BECMG 2206/2208 28010KT PROB30 TEMPO 2211/2217 TSRA FEW030CB SCT035
TAF
LDZA 211725Z 2118/2218 23006KT CAVOK TX20/2213Z TN10/2204Z PROB30 2202/2206 3000 BR PROB30 TEMPO 2211/2216 23012KT TSRA FEW030CB SCT040 =
LDSP 211725Z 2118/2218 08005KT 9999 SCT040 TX20/2213Z TN15/2204Z BECMG 2210/2212 23008KT PROB40 TEMPO 2210/2217 TSRA FEW030CB SCT035 =
LDDU 211725Z 2118/2218 09008KT 9999 SCT030 TX19/2212Z TN14/2203Z BECMG 2206/2208 12012KT BECMG 2212/2214 VRB02KT =
LDPL 211725Z 2118/2218 18006KT 9999 BKN040 TX19/2214Z TN11/2204Z PROB30 TEMPO 2121/2201 TSRA BKN010 FEW020CB BKN030 PROB30 TEMPO 2204/2209 TSRA BKN010 FEW020CB BKN030 TEMPO 2205/2211 27010KT =
LDZD 211725Z 2118/2218 13005KT 9999 SCT030 TX20/2213Z TN10/2204Z PROB30 TEMPO 2122/2201 RA BECMG 2210/2212 30008KT =
LDRI 211725Z 2118/2218 14006KT 9999 BKN030 TX17/2215Z TN11/2204Z PROB40 TEMPO 2121/2213 RA BKN008 BKN025 =
LDOS 211725Z 2118/2218 22010KT 9999 SCT035 TX22/2214Z TN09/2204Z BECMG 2206/2208 28010KT PROB30 TEMPO 2211/2217 TSRA FEW030CB SCT035 =
SR / SS: 03:17 / 18:26 UTC (Zagreb 2019-05-21)